Time;durP1;ratioP1;P1;durP2;ratioP2;P2;SDS_P1;SDS_P2;PMS_P1;PMS_P2;Temp;Humidity;BMP_temperature;BMP_pressure;BME280_temperature;BME280_humidity;BME280_pressure;Samples;Min_cycle;Max_cycle;Signal;HPM_P1;HPM_P2
2022/09/06 00:00:30;;;;;;;8.10;2.58;;;23.70;82.10;;;;;;4142694;28;20060;-65
2022/09/06 00:02:33;;;;;;;4.10;1.58;;;23.70;80.30;;;;;;4143312;28;20108;-66
2022/09/06 00:04:33;;;;;;;3.08;1.55;;;23.70;82.20;;;;;;4140482;28;20472;-65
2022/09/06 00:06:34;;;;;;;4.93;1.80;;;23.70;82.90;;;;;;4138976;28;20046;-65
2022/09/06 00:08:35;;;;;;;1.95;1.45;;;23.80;79.80;;;;;;4138577;28;20049;-66
2022/09/06 00:10:36;;;;;;;4.47;2.00;;;23.70;83.20;;;;;;4144710;28;20112;-66
2022/09/06 00:12:37;;;;;;;4.15;1.75;;;23.70;81.00;;;;;;4140424;28;20108;-66
2022/09/06 00:14:37;;;;;;;4.68;1.67;;;23.70;84.50;;;;;;4140585;28;20389;-66
2022/09/06 00:16:39;;;;;;;5.00;1.77;;;23.70;82.70;;;;;;4142099;28;20038;-65
2022/09/06 00:18:40;;;;;;;4.53;2.20;;;23.50;83.00;;;;;;4140103;28;20092;-66
2022/09/06 00:20:41;;;;;;;3.67;1.77;;;23.50;85.10;;;;;;4140999;28;20473;-66
2022/09/06 00:22:41;;;;;;;5.82;1.65;;;23.50;85.50;;;;;;4140072;28;20032;-66
2022/09/06 00:24:42;;;;;;;7.18;1.70;;;23.50;85.50;;;;;;4138073;28;20026;-66
2022/09/06 00:26:42;;;;;;;3.65;1.80;;;23.40;85.70;;;;;;4139249;28;20843;-65
2022/09/06 00:28:43;;;;;;;5.20;1.67;;;23.30;89.60;;;;;;4139527;28;20109;-66
2022/09/06 00:30:44;;;;;;;3.65;2.20;;;23.30;85.80;;;;;;4142312;28;20069;-66
2022/09/06 00:32:44;;;;;;;3.45;1.75;;;23.20;89.10;;;;;;4141679;28;20106;-65
2022/09/06 00:34:45;;;;;;;4.15;1.92;;;23.20;89.00;;;;;;4139549;28;20038;-66
2022/09/06 00:36:46;;;;;;;3.10;1.60;;;23.20;90.00;;;;;;4139497;28;20071;-65
2022/09/06 00:38:46;;;;;;;2.03;1.60;;;23.20;90.60;;;;;;4139203;28;20054;-66
2022/09/06 00:40:47;;;;;;;3.88;1.60;;;23.20;90.20;;;;;;4140819;28;20121;-65
2022/09/06 00:42:48;;;;;;;3.67;1.52;;;23.20;90.20;;;;;;4137388;28;20042;-66
2022/09/06 00:44:49;;;;;;;4.97;1.83;;;23.20;89.30;;;;;;4143219;28;20116;-65
2022/09/06 00:46:52;;;;;;;1.50;1.40;;;23.20;88.80;;;;;;4144161;28;20041;-66
2022/09/06 00:48:57;;;;;;;3.80;2.10;;;23.30;89.20;;;;;;4143057;28;20053;-65
2022/09/06 00:51:00;;;;;;;7.80;2.13;;;23.30;88.80;;;;;;4142990;28;20040;-65
2022/09/06 00:53:01;;;;;;;5.35;1.60;;;23.30;90.80;;;;;;4143756;28;20038;-65
2022/09/06 00:55:02;;;;;;;2.08;1.33;;;23.30;89.20;;;;;;4145283;28;20563;-65
2022/09/06 00:57:03;;;;;;;4.55;1.60;;;23.30;89.70;;;;;;4144456;28;20046;-65
2022/09/06 00:59:04;;;;;;;3.50;1.33;;;23.30;89.90;;;;;;4146215;28;20470;-66
2022/09/06 01:01:05;;;;;;;6.25;1.83;;;23.30;90.10;;;;;;4142501;28;20037;-66
2022/09/06 01:03:06;;;;;;;2.58;1.40;;;23.30;90.20;;;;;;4144872;28;20026;-66
2022/09/06 01:05:07;;;;;;;2.80;1.40;;;23.30;90.00;;;;;;4144251;28;20070;-66
2022/09/06 01:07:31;;;;;;;2.05;1.35;;;23.30;90.10;;;;;;4144503;28;20026;-66
2022/09/06 01:09:46;;;;;;;3.25;1.50;;;23.30;91.60;;;;;;4142837;28;20266;-66
2022/09/06 01:11:57;;;;;;;4.47;1.52;;;23.30;90.80;;;;;;4139868;28;20034;-66
2022/09/06 01:14:33;;;;;;;4.80;1.30;;;23.30;91.40;;;;;;4145202;28;20117;-66
2022/09/06 01:16:47;;;;;;;1.65;1.20;;;23.30;91.40;;;;;;4142884;28;20034;-66
2022/09/06 01:18:53;;;;;;;1.65;1.27;;;23.30;91.30;;;;;;4145211;28;20050;-66
2022/09/06 01:21:24;;;;;;;1.90;1.10;;;23.20;91.60;;;;;;4144735;28;20457;-66
2022/09/06 01:24:03;;;;;;;2.33;1.50;;;23.20;91.00;;;;;;4144944;28;20022;-66
2022/09/06 01:26:15;;;;;;;1.42;1.10;;;23.30;92.20;;;;;;4143223;28;20038;-66
2022/09/06 01:28:27;;;;;;;3.40;1.25;;;23.30;90.30;;;;;;4143274;28;20052;-66
2022/09/06 01:30:29;;;;;;;1.40;1.30;;;23.30;91.10;;;;;;4143375;28;20030;-66
2022/09/06 01:32:58;;;;;;;2.72;1.10;;;23.30;91.60;;;;;;4143208;28;20041;-65
2022/09/06 01:35:21;;;;;;;2.08;1.20;;;23.40;91.80;;;;;;4144698;28;20038;-65
2022/09/06 01:37:21;;;;;;;;;;;23.30;90.60;;;;;;4144371;28;20088;-66
2022/09/06 01:39:26;;;;;;;1.92;1.13;;;23.30;90.50;;;;;;4144223;28;19913;-66
2022/09/06 01:41:28;;;;;;;2.78;1.13;;;23.30;91.10;;;;;;4136647;28;20269;-66
2022/09/06 01:43:33;;;;;;;1.60;1.13;;;23.30;90.70;;;;;;4144769;28;20038;-65
2022/09/06 01:46:06;;;;;;;1.80;1.20;;;23.40;91.40;;;;;;4144362;28;20105;-65
2022/09/06 01:48:12;;;;;;;3.00;1.42;;;23.30;91.10;;;;;;4144251;28;20037;-66
2022/09/06 01:50:47;;;;;;;2.63;1.15;;;23.30;92.00;;;;;;4142988;28;20049;-66
2022/09/06 01:53:33;;;;;;;2.35;1.35;;;23.30;91.80;;;;;;4140744;28;20085;-66
2022/09/06 01:55:52;;;;;;;3.92;1.38;;;23.20;91.70;;;;;;4143688;28;20037;-65
2022/09/06 01:58:14;;;;;;;2.80;1.10;;;23.20;92.50;;;;;;4144395;28;20389;-66
2022/09/06 02:00:18;;;;;;;1.33;1.23;;;23.20;93.70;;;;;;4141926;28;20120;-66
2022/09/06 02:02:34;;;;;;;1.73;1.33;;;23.30;93.10;;;;;;4144428;28;20042;-66
2022/09/06 02:04:44;;;;;;;1.33;1.20;;;23.20;93.30;;;;;;4140592;28;20049;-66
2022/09/06 02:06:51;;;;;;;2.38;1.30;;;23.10;93.00;;;;;;4143744;28;20123;-65
2022/09/06 02:09:01;;;;;;;1.98;1.25;;;23.20;92.90;;;;;;4145089;28;20108;-66
2022/09/06 02:11:04;;;;;;;3.03;1.23;;;23.20;94.20;;;;;;4142401;28;20037;-65
2022/09/06 02:13:08;;;;;;;2.15;1.30;;;23.20;94.30;;;;;;4144665;28;20076;-66
2022/09/06 02:15:25;;;;;;;1.85;1.02;;;23.20;94.80;;;;;;4142727;28;20030;-67
2022/09/06 02:17:30;;;;;;;1.65;1.38;;;23.30;95.60;;;;;;4139593;28;20037;-66
2022/09/06 02:19:50;;;;;;;2.15;1.35;;;23.30;96.00;;;;;;4143318;28;20018;-65
2022/09/06 02:21:51;;;;;;;1.58;1.30;;;23.30;96.00;;;;;;4143203;28;20045;-66
2022/09/06 02:23:54;;;;;;;1.45;1.35;;;23.30;96.70;;;;;;4140226;28;20030;-66
2022/09/06 02:25:58;;;;;;;;;;;23.30;97.30;;;;;;4144184;28;20097;-67
2022/09/06 02:27:58;;;;;;;;;;;23.20;97.20;;;;;;4144556;28;19937;-66
2022/09/06 02:30:01;;;;;;;;;;;23.30;98.20;;;;;;4144542;28;20274;-67
2022/09/06 02:32:08;;;;;;;;;;;23.30;99.80;;;;;;4144319;28;19913;-67
2022/09/06 02:34:10;;;;;;;;;;;23.30;99.90;;;;;;4144734;28;19909;-68
2022/09/06 02:36:11;;;;;;;;;;;23.20;99.90;;;;;;4144507;28;19960;-67
2022/09/06 02:38:11;;;;;;;;;;;23.20;99.90;;;;;;4144803;28;19909;-67
2022/09/06 02:40:12;;;;;;;;;;;23.20;99.90;;;;;;4143607;28;19945;-67
2022/09/06 02:42:14;;;;;;;;;;;23.10;99.90;;;;;;4144232;28;19910;-67
2022/09/06 02:44:14;;;;;;;;;;;22.90;99.90;;;;;;4143907;28;20351;-67
2022/09/06 02:46:15;;;;;;;;;;;23.00;99.90;;;;;;4144062;28;19910;-67
2022/09/06 02:48:16;;;;;;;;;;;22.90;99.90;;;;;;4144094;28;19964;-66
2022/09/06 02:50:16;;;;;;;;;;;22.90;99.90;;;;;;4143619;28;19913;-67
2022/09/06 02:52:17;;;;;;;;;;;22.70;99.90;;;;;;4139975;28;20422;-66
2022/09/06 02:54:17;;;;;;;;;;;22.70;99.90;;;;;;4144334;28;19924;-66
2022/09/06 02:56:18;;;;;;;;;;;22.70;99.90;;;;;;4143530;28;20008;-66
2022/09/06 02:58:18;;;;;;;;;;;22.50;99.90;;;;;;4143220;28;20388;-67
2022/09/06 03:00:19;;;;;;;;;;;22.50;99.90;;;;;;4144473;28;20009;-66
2022/09/06 03:02:19;;;;;;;;;;;22.40;99.90;;;;;;4144820;28;19909;-67
2022/09/06 03:04:20;;;;;;;;;;;22.40;99.90;;;;;;4143542;28;20059;-67
2022/09/06 03:06:20;;;;;;;;;;;22.40;99.90;;;;;;4137910;28;19909;-66
2022/09/06 03:08:22;;;;;;;;;;;22.40;99.90;;;;;;4143707;28;19924;-67
2022/09/06 03:10:26;;;;;;;;;;;22.40;99.90;;;;;;4144773;28;19914;-67
2022/09/06 03:12:27;;;;;;;;;;;22.30;99.90;;;;;;4143331;28;19971;-67
2022/09/06 03:14:27;;;;;;;;;;;22.30;99.90;;;;;;4143857;28;20336;-67
2022/09/06 03:16:28;;;;;;;;;;;22.30;99.90;;;;;;4143863;28;19917;-67
2022/09/06 03:18:29;;;;;;;;;;;22.30;99.90;;;;;;4144317;28;19916;-67
2022/09/06 03:20:29;;;;;;;;;;;22.40;99.90;;;;;;4143268;28;19921;-66
2022/09/06 03:22:30;;;;;;;;;;;22.40;99.90;;;;;;4144464;28;20339;-66
2022/09/06 03:24:30;;;;;;;;;;;22.40;99.90;;;;;;4144376;28;19971;-66
2022/09/06 03:26:31;;;;;;;;;;;22.40;99.90;;;;;;4142626;28;19909;-66
2022/09/06 03:28:31;;;;;;;;;;;22.50;99.90;;;;;;4143833;28;19914;-67
2022/09/06 03:30:32;;;;;;;;;;;22.50;99.90;;;;;;4142388;28;19961;-67
2022/09/06 03:32:32;;;;;;;;;;;22.50;99.90;;;;;;4144231;28;20000;-66
2022/09/06 03:34:33;;;;;;;;;;;22.50;99.90;;;;;;4144423;28;19909;-67
2022/09/06 03:36:33;;;;;;;;;;;22.50;99.90;;;;;;4142899;28;19909;-67
2022/09/06 03:38:34;;;;;;;;;;;22.50;99.90;;;;;;4144095;28;19909;-67
2022/09/06 03:40:34;;;;;;;;;;;22.50;99.90;;;;;;4142554;28;19917;-67
2022/09/06 03:42:35;;;;;;;;;;;22.40;99.90;;;;;;4144254;28;19917;-67
2022/09/06 03:44:35;;;;;;;;;;;22.40;99.90;;;;;;4143686;28;19918;-68
2022/09/06 03:46:36;;;;;;;;;;;22.30;99.90;;;;;;4142852;28;19923;-67
2022/09/06 03:48:36;;;;;;;;;;;22.30;99.90;;;;;;4144040;28;20309;-67
2022/09/06 03:50:37;;;;;;;;;;;22.20;99.90;;;;;;4142135;28;19918;-67
2022/09/06 03:52:37;;;;;;;;;;;22.20;99.90;;;;;;4143938;28;20388;-67
2022/09/06 03:54:38;;;;;;;;;;;22.20;99.90;;;;;;4143979;28;19921;-67
2022/09/06 03:56:38;;;;;;;;;;;22.20;99.90;;;;;;4143425;28;19916;-67
2022/09/06 03:58:39;;;;;;;;;;;22.20;99.90;;;;;;4143845;28;19916;-67
2022/09/06 04:00:39;;;;;;;;;;;22.20;99.90;;;;;;4143949;28;19913;-67
2022/09/06 04:02:40;;;;;;;;;;;22.20;99.90;;;;;;4141671;28;20027;-67
2022/09/06 04:04:40;;;;;;;;;;;22.20;99.90;;;;;;4141881;28;20084;-67
2022/09/06 04:06:41;;;;;;;;;;;22.20;99.90;;;;;;4142818;28;20416;-67
2022/09/06 04:08:41;;;;;;;;;;;22.20;99.90;;;;;;4143202;28;19932;-66
2022/09/06 04:10:42;;;;;;;;;;;22.20;99.90;;;;;;4145694;28;19918;-67
2022/09/06 04:12:43;;;;;;;;;;;22.20;99.90;;;;;;4143367;28;20284;-67
2022/09/06 04:14:44;;;;;;;;;;;22.10;99.90;;;;;;4143671;28;20015;-67
2022/09/06 04:16:45;;;;;;;;;;;22.10;99.90;;;;;;4143208;28;19917;-66
2022/09/06 04:18:45;;;;;;;;;;;22.10;99.90;;;;;;4143648;28;19975;-67
2022/09/06 04:20:50;;;;;;;;;;;22.10;99.90;;;;;;4142287;28;19917;-66
2022/09/06 04:22:50;;;;;;;;;;;22.00;99.90;;;;;;4143341;28;19918;-67
2022/09/06 04:24:51;;;;;;;;;;;22.00;99.90;;;;;;4143938;28;19925;-67
2022/09/06 04:26:51;;;;;;;;;;;22.00;99.90;;;;;;4144152;28;19992;-66
2022/09/06 04:28:51;;;;;;;;;;;22.00;99.90;;;;;;4145295;28;19941;-66
2022/09/06 04:30:56;;;;;;;;;;;22.00;99.90;;;;;;4145145;28;19916;-66
2022/09/06 04:32:57;;;;;;;;;;;22.00;99.90;;;;;;4146810;28;19936;-67
2022/09/06 04:34:57;;;;;;;;;;;22.00;99.90;;;;;;4143349;28;19910;-67
2022/09/06 04:36:58;;;;;;;;;;;22.00;99.90;;;;;;4145109;28;20289;-67
2022/09/06 04:38:58;;;;;;;;;;;22.00;99.90;;;;;;4146034;28;19910;-67
2022/09/06 04:40:59;;;;;;;;;;;22.00;99.90;;;;;;4145293;28;19961;-67
2022/09/06 04:42:59;;;;;;;;;;;22.00;99.90;;;;;;4146175;28;20315;-66
2022/09/06 04:45:00;;;;;;;;;;;21.90;99.90;;;;;;4146439;28;19909;-66
2022/09/06 04:47:02;;;;;;;;;;;21.80;99.90;;;;;;4145757;28;19917;-66
2022/09/06 04:49:03;;;;;;;;;;;21.70;99.90;;;;;;4147132;28;20420;-66
2022/09/06 04:51:03;;;;;;;;;;;21.70;99.90;;;;;;4143115;28;19913;-66
2022/09/06 04:53:04;;;;;;;;;;;21.60;99.90;;;;;;4142248;28;19921;-65
2022/09/06 04:55:05;;;;;;;;;;;21.60;99.90;;;;;;4145663;28;19917;-66
2022/09/06 04:57:06;;;;;;;;;;;21.60;99.90;;;;;;4145274;28;19917;-67
2022/09/06 04:59:06;;;;;;;;;;;21.50;99.90;;;;;;4144155;28;19924;-66
2022/09/06 05:01:06;;;;;;;;;;;21.50;99.90;;;;;;4145450;28;19909;-66
2022/09/06 05:03:08;;;;;;;;;;;21.50;99.90;;;;;;4145734;28;19913;-67
2022/09/06 05:05:09;;;;;;;;;;;21.40;99.90;;;;;;4145293;28;19929;-67
2022/09/06 05:07:09;;;;;;;;;;;21.40;99.90;;;;;;4141988;28;20380;-66
2022/09/06 05:09:10;;;;;;;;;;;21.40;99.90;;;;;;4142960;28;19909;-66
2022/09/06 05:11:11;;;;;;;;;;;21.30;99.90;;;;;;4141499;28;20284;-66
2022/09/06 05:13:11;;;;;;;;;;;21.30;99.90;;;;;;4142869;28;19921;-67
2022/09/06 05:15:12;;;;;;;;;;;21.30;99.90;;;;;;4142767;28;20331;-67
2022/09/06 05:17:13;;;;;;;;;;;21.20;99.90;;;;;;4142774;28;19910;-66
2022/09/06 05:19:14;;;;;;;;;;;21.20;99.90;;;;;;4141182;28;19947;-66
2022/09/06 05:21:14;;;;;;;;;;;21.20;99.90;;;;;;4141127;28;20317;-66
2022/09/06 05:23:15;;;;;;;;;;;21.10;99.90;;;;;;4140816;28;19919;-66
2022/09/06 05:25:15;;;;;;;;;;;21.10;99.90;;;;;;4139978;28;20225;-67
2022/09/06 05:27:16;;;;;;;;;;;21.10;99.90;;;;;;4140205;28;20262;-65
2022/09/06 05:29:16;;;;;;;;;;;21.10;99.90;;;;;;4139438;28;19909;-67
2022/09/06 05:31:27;;;;;;;;;;;21.10;99.90;;;;;;4140692;28;20491;-66
2022/09/06 05:33:28;;;;;;;;;;;21.10;99.90;;;;;;4141098;28;19917;-68
2022/09/06 05:35:28;;;;;;;;;;;21.10;99.90;;;;;;4139754;28;19924;-68
2022/09/06 05:37:28;;;;;;;;;;;21.10;99.90;;;;;;4140344;28;19918;-68
2022/09/06 05:39:30;;;;;;;;;;;21.10;99.90;;;;;;4139043;28;19960;-67
2022/09/06 05:41:31;;;;;;;;;;;21.20;99.90;;;;;;4140577;28;19923;-68
2022/09/06 05:43:32;;;;;;;;;;;21.20;99.90;;;;;;4141627;28;19916;-67
2022/09/06 05:45:32;;;;;;;;;;;21.20;99.90;;;;;;4140806;28;20293;-68
2022/09/06 05:47:34;;;;;;;;;;;21.20;99.90;;;;;;4141025;28;19909;-67
2022/09/06 05:49:34;;;;;;;;;;;21.20;99.90;;;;;;4139825;28;19909;-67
2022/09/06 05:51:35;;;;;;;;;;;21.20;99.90;;;;;;4139572;28;20456;-66
2022/09/06 05:53:36;;;;;;;;;;;21.20;99.90;;;;;;4141800;28;19914;-67
2022/09/06 05:55:37;;;;;;;;;;;21.10;99.90;;;;;;4141773;28;19917;-67
2022/09/06 05:57:37;;;;;;;;;;;21.10;99.90;;;;;;4141934;28;19971;-67
2022/09/06 05:59:38;;;;;;;;;;;21.20;99.90;;;;;;4141744;28;19910;-67
2022/09/06 06:01:46;;;;;;;;;;;21.20;99.90;;;;;;4141324;28;19909;-67
2022/09/06 06:03:57;;;;;;;;;;;21.10;99.90;;;;;;4138885;28;19917;-67
2022/09/06 06:05:58;;;;;;;;;;;21.10;99.90;;;;;;4141261;28;20767;-66
2022/09/06 06:07:58;;;;;;;;;;;21.20;99.90;;;;;;4140501;28;19913;-67
2022/09/06 06:09:59;;;;;;;;;;;21.20;99.90;;;;;;4142305;28;19917;-67
2022/09/06 06:11:59;;;;;;;;;;;21.10;99.90;;;;;;4141196;28;19949;-67
2022/09/06 06:14:01;;;;;;;;;;;21.10;99.90;;;;;;4141248;28;20067;-66
2022/09/06 06:16:02;;;;;;;;;;;21.20;99.90;;;;;;4141722;28;19917;-66
2022/09/06 06:18:02;;;;;;;;;;;21.20;99.90;;;;;;4141971;28;19925;-66
2022/09/06 06:20:03;;;;;;;;;;;21.20;99.90;;;;;;4137653;28;19914;-67
2022/09/06 06:22:03;;;;;;;;;;;21.30;99.90;;;;;;4139928;28;20364;-67
2022/09/06 06:24:05;;;;;;;;;;;21.30;99.90;;;;;;4140353;28;20055;-66
2022/09/06 06:26:06;;;;;;;;;;;21.40;99.90;;;;;;4140382;28;19914;-67
2022/09/06 06:28:06;;;;;;;;;;;21.40;99.90;;;;;;4141762;28;19923;-66
2022/09/06 06:30:07;;;;;;;;;;;21.50;99.90;;;;;;4139891;28;20008;-69
2022/09/06 06:32:07;;;;;;;;;;;21.70;99.90;;;;;;4140933;28;19917;-66
2022/09/06 06:34:08;;;;;;;;;;;22.00;99.90;;;;;;4141299;28;19916;-67
2022/09/06 06:36:14;;;;;;;;;;;22.20;99.90;;;;;;4137066;28;20412;-67
2022/09/06 06:38:15;;;;;;;;;;;22.50;99.90;;;;;;4138868;28;19963;-66
2022/09/06 06:40:15;;;;;;;;;;;22.80;99.90;;;;;;4139751;28;19958;-67
2022/09/06 06:42:16;;;;;;;;;;;23.10;99.90;;;;;;4141887;28;19910;-66
2022/09/06 06:44:16;;;;;;;;;;;23.30;99.90;;;;;;4141194;28;19913;-67
2022/09/06 06:46:17;;;;;;;;;;;23.70;99.90;;;;;;4136972;28;20897;-68
2022/09/06 06:48:17;;;;;;;;;;;24.00;99.90;;;;;;4133886;28;19914;-67
2022/09/06 06:50:18;;;;;;;;;;;24.20;99.90;;;;;;4133807;28;19913;-67
2022/09/06 06:52:20;;;;;;;;;;;24.50;99.90;;;;;;4137818;28;20805;-67
2022/09/06 06:54:20;;;;;;;;;;;24.70;99.90;;;;;;4135967;28;20493;-66
2022/09/06 06:56:24;;;;;;;;;;;24.80;99.90;;;;;;4136133;28;19921;-67
2022/09/06 06:58:24;;;;;;;;;;;25.10;99.90;;;;;;4139157;28;19917;-67
2022/09/06 07:00:25;;;;;;;;;;;25.40;99.90;;;;;;4139321;28;20421;-67
2022/09/06 07:02:25;;;;;;;;;;;25.50;99.80;;;;;;4139753;28;19913;-67
2022/09/06 07:04:26;;;;;;;;;;;25.70;99.60;;;;;;4136569;28;20040;-67
2022/09/06 07:06:29;;;;;;;;;;;25.90;99.00;;;;;;4140774;28;19971;-67
2022/09/06 07:08:30;;;;;;;;;;;26.10;97.90;;;;;;4142572;28;19932;-67
2022/09/06 07:10:30;;;;;;;;;;;26.20;97.90;;;;;;4141948;28;19953;-67
2022/09/06 07:12:31;;;;;;;;;;;26.30;96.90;;;;;;4144280;28;20304;-68
2022/09/06 07:14:31;;;;;;;;;;;26.30;96.80;;;;;;4144018;28;19935;-68
2022/09/06 07:16:32;;;;;;;;;;;26.50;97.10;;;;;;4144188;28;19921;-67
2022/09/06 07:18:32;;;;;;;;;;;26.70;95.50;;;;;;4144097;28;19913;-67
2022/09/06 07:20:33;;;;;;;;;;;26.60;95.10;;;;;;4142683;28;19921;-67
2022/09/06 07:22:33;;;;;;;;;;;26.70;94.70;;;;;;4144330;28;19992;-67
2022/09/06 07:24:34;;;;;;;;;;;26.70;94.30;;;;;;4142419;28;20384;-67
2022/09/06 07:26:35;;;;;;;;;;;26.90;94.30;;;;;;4142707;28;19916;-67
2022/09/06 07:28:35;;;;;;;;;;;26.90;94.30;;;;;;4143871;28;20392;-67
2022/09/06 07:30:36;;;;;;;;;;;27.00;94.10;;;;;;4142037;28;19909;-68
2022/09/06 07:32:36;;;;;;;;;;;27.10;93.60;;;;;;4144277;28;19928;-67
2022/09/06 07:34:38;;;;;;;;;;;27.20;93.30;;;;;;4143920;28;19921;-68
2022/09/06 07:36:39;;;;;;;;;;;27.30;93.10;;;;;;4143280;28;19956;-67
2022/09/06 07:38:39;;;;;;;;;;;27.40;93.30;;;;;;4138391;28;19918;-67
2022/09/06 07:40:40;;;;;;;;;;;27.40;93.00;;;;;;4136788;28;19921;-67
2022/09/06 07:42:41;;;;;;;;;;;27.50;93.00;;;;;;4141461;28;19909;-67
2022/09/06 07:44:41;;;;;;;;;;;27.60;92.70;;;;;;4138511;28;19917;-67
2022/09/06 07:46:42;;;;;;;;;;;27.60;91.90;;;;;;4134001;28;20365;-67
2022/09/06 07:48:44;;;;;;;;;;;27.60;91.30;;;;;;4136079;28;19909;-66
2022/09/06 07:50:47;;;;;;;;;;;27.50;91.60;;;;;;4138329;28;19960;-67
2022/09/06 07:52:47;;;;;;;;;;;27.50;90.90;;;;;;4140305;28;19935;-67
2022/09/06 07:54:47;;;;;;;;;;;27.60;91.20;;;;;;4138472;28;19964;-67
2022/09/06 07:56:48;;;;;;;;;;;27.50;90.80;;;;;;4133064;28;19992;-67
2022/09/06 07:58:49;;;;;;;;;;;27.50;91.10;;;;;;4139140;28;19920;-67
2022/09/06 08:00:50;;;;;;;;;;;27.60;91.00;;;;;;4139563;28;19916;-67
2022/09/06 08:02:50;;;;;;;;;;;27.60;90.50;;;;;;4141776;28;20369;-68
2022/09/06 08:04:51;;;;;;;;;;;27.60;90.80;;;;;;4143442;28;19927;-67
2022/09/06 08:06:52;;;;;;;;;;;27.50;90.80;;;;;;4143246;28;19909;-67
2022/09/06 08:08:53;;;;;;;;;;;27.50;90.30;;;;;;4142343;28;19989;-67
2022/09/06 08:10:53;;;;;;;;;;;27.40;90.40;;;;;;4143669;28;19917;-67
2022/09/06 08:12:54;;;;;;;;;;;27.40;90.70;;;;;;4144168;28;19920;-67
2022/09/06 08:14:54;;;;;;;;;;;27.50;91.00;;;;;;4142080;28;19923;-67
2022/09/06 08:16:55;;;;;;;;;;;27.50;90.50;;;;;;4141190;28;20435;-67
2022/09/06 08:18:57;;;;;;;;;;;27.40;90.30;;;;;;4144041;28;20581;-67
2022/09/06 08:21:08;;;;;;;;;;;27.50;90.20;;;;;;4143967;28;20005;-67
2022/09/06 08:23:09;;;;;;;;;;;27.50;90.50;;;;;;4143448;28;19965;-67
2022/09/06 08:25:09;;;;;;;;;;;27.40;90.20;;;;;;4143545;28;19929;-67
2022/09/06 08:27:10;;;;;;;;;;;27.50;90.70;;;;;;4143556;28;20328;-67
2022/09/06 08:29:11;;;;;;;;;;;27.60;90.60;;;;;;4143510;28;20380;-67
2022/09/06 08:31:13;;;;;;;;;;;27.70;90.40;;;;;;4141212;28;19909;-67
2022/09/06 08:33:14;;;;;;;;;;;27.70;89.50;;;;;;4139823;28;19914;-67
2022/09/06 08:35:15;;;;;;;;;;;27.80;89.80;;;;;;4143031;28;20511;-68
2022/09/06 08:37:15;;;;;;;;;;;27.80;89.10;;;;;;4140566;28;20058;-67
2022/09/06 08:39:16;;;;;;;;;;;27.90;88.20;;;;;;4142655;28;19913;-68
2022/09/06 08:41:40;;;;;;;;;;;27.90;87.20;;;;;;4142273;28;19913;-68
2022/09/06 08:43:53;;;;;;;;;;;28.00;87.00;;;;;;4129949;28;20266;-67
2022/09/06 08:45:55;;;;;;;;;;;28.00;86.00;;;;;;4141502;28;19999;-67
2022/09/06 08:47:56;;;;;;;;;;;28.00;87.10;;;;;;4141568;28;19917;-68
2022/09/06 08:50:01;;;;;;;;;;;28.00;86.00;;;;;;4143343;28;19909;-67
2022/09/06 08:52:08;;;;;;;;;;;28.10;86.70;;;;;;4140952;28;20455;-66
2022/09/06 08:54:32;;;;;;;;;;;28.10;86.30;;;;;;4142960;28;19924;-66
2022/09/06 08:56:52;;;;;;;;;;;28.20;86.50;;;;;;4133182;28;19918;-67
2022/09/06 08:58:56;;;;;;;;;;;28.30;85.40;;;;;;4142527;28;20345;-68
2022/09/06 09:00:59;;;;;;;;;;;28.30;83.90;;;;;;4140622;28;20273;-67
2022/09/06 09:02:59;;;;;;;;;;;28.30;84.50;;;;;;4142126;28;19923;-68
2022/09/06 09:05:03;;;;;;;;;;;28.30;84.10;;;;;;4141223;28;20300;-68
2022/09/06 09:07:22;;;;;;;;;;;28.30;84.00;;;;;;4142799;28;20381;-68
2022/09/06 09:09:23;;;;;;;;;;;28.40;84.60;;;;;;4142726;28;19916;-68
2022/09/06 09:11:24;;;;;;;;;;;28.40;83.50;;;;;;4140647;28;19909;-68
2022/09/06 09:13:36;;;;;;;;;;;28.40;84.30;;;;;;4139301;28;20463;-68
2022/09/06 09:15:37;;;;;;;;;;;28.40;83.90;;;;;;4142256;28;19917;-67
2022/09/06 09:17:37;;;;;;;;;;;28.40;83.60;;;;;;4142222;28;19947;-67
2022/09/06 09:19:39;;;;;;;;;;;28.50;84.10;;;;;;4142016;28;19921;-68
2022/09/06 09:21:40;;;;;;;;;;;28.60;82.40;;;;;;4138338;28;19914;-67
2022/09/06 09:23:41;;;;;;;;;;;28.60;81.90;;;;;;4141705;28;20560;-68
2022/09/06 09:25:42;;;;;;;;;;;28.60;80.90;;;;;;4141510;28;19967;-68
2022/09/06 09:27:43;;;;;;;;;;;28.70;82.00;;;;;;4141560;28;19916;-68
2022/09/06 09:29:52;;;;;;;;;;;28.70;81.40;;;;;;4140963;28;20242;-68
2022/09/06 09:31:53;;;;;;;;;;;28.80;82.60;;;;;;4139954;28;19971;-68
2022/09/06 09:33:55;;;;;;;;;;;28.80;80.70;;;;;;4139909;28;20392;-68
2022/09/06 09:35:57;;;;;;;;;;;28.80;80.40;;;;;;4138953;28;19949;-68
2022/09/06 09:38:00;;;;;;;;;;;28.80;79.20;;;;;;4139536;28;20387;-67
2022/09/06 09:40:00;;;;;;;;;;;29.00;81.30;;;;;;4136809;28;20028;-67
2022/09/06 09:42:01;;;;;;;;;;;29.00;79.60;;;;;;4139904;28;19917;-67
2022/09/06 09:44:03;;;;;;;;;;;29.00;78.80;;;;;;4141732;28;20052;-67
2022/09/06 09:46:22;;;;;;;;;;;29.00;79.20;;;;;;4139411;28;20431;-67
2022/09/06 09:48:25;;;;;;;;;;;29.00;78.60;;;;;;4141365;28;20006;-67
2022/09/06 09:50:28;;;;;;;;;;;29.00;78.90;;;;;;4141078;28;20011;-67
2022/09/06 09:52:29;;;;;;;;;;;29.00;80.00;;;;;;4141732;28;19959;-67
2022/09/06 09:54:31;;;;;;;;;;;29.00;80.40;;;;;;4141532;28;19925;-67
2022/09/06 09:56:38;;;;;;;;;;;29.00;78.70;;;;;;4141442;28;20004;-67
2022/09/06 09:58:39;;;;;;;;;;;29.00;78.10;;;;;;4140383;28;19913;-68
2022/09/06 10:00:40;;;;;;;;;;;29.10;78.00;;;;;;4141768;28;19918;-67
2022/09/06 10:02:41;;;;;;;;;;;29.00;77.90;;;;;;4141616;28;19935;-67
2022/09/06 10:04:45;;;;;;;;;;;29.10;78.00;;;;;;4141671;28;19936;-67
2022/09/06 10:06:46;;;;;;;;;;;29.00;77.00;;;;;;4140532;28;19943;-67
2022/09/06 10:08:46;;;;;;;;;;;29.10;77.80;;;;;;4141275;28;19910;-66
2022/09/06 10:10:47;;;;;;;;;;;29.10;79.70;;;;;;4141139;28;20331;-67
2022/09/06 10:13:04;;;;;;;;;;;29.10;78.50;;;;;;4141333;28;19917;-67
2022/09/06 10:15:05;;;;;;;;;;;29.20;81.80;;;;;;4139656;28;19917;-67
2022/09/06 10:17:06;;;;;;;;;;;29.20;78.50;;;;;;4140281;28;19909;-67
2022/09/06 10:19:20;;;;;;;;;;;29.20;79.30;;;;;;4140575;28;19917;-67
2022/09/06 10:21:21;;;;;;;;;;;29.30;77.70;;;;;;4139462;28;19963;-67
2022/09/06 10:23:40;;;;;;;;;;;29.40;78.20;;;;;;4141548;28;19913;-67
2022/09/06 10:25:40;;;;;;;;;;;29.40;79.60;;;;;;4139896;28;19952;-67
2022/09/06 10:28:01;;;;;;;;;;;29.40;77.80;;;;;;4139390;28;19925;-67
2022/09/06 10:30:06;;;;;;;;;;;29.30;78.60;;;;;;4125641;28;19918;-67
2022/09/06 10:32:25;;;;;;;;;;;29.30;77.50;;;;;;4140995;28;19936;-67
2022/09/06 10:34:32;;;;;;;;;;;29.30;77.40;;;;;;4136920;28;19924;-67
2022/09/06 10:36:34;;;;;;;;;;;29.40;77.50;;;;;;4139622;28;19925;-67
2022/09/06 10:38:38;;;;;;;;;;;29.40;80.30;;;;;;4139899;28;19924;-66
2022/09/06 10:40:47;;;;;;;;;;;29.50;78.00;;;;;;4138693;28;19933;-67
2022/09/06 10:42:49;;;;;;;;;;;29.40;78.50;;;;;;4139972;28;20419;-65
2022/09/06 10:44:52;;;;;;;;;;;29.50;78.10;;;;;;4140059;28;19976;-67
2022/09/06 10:47:13;;;;;;;;;;;29.50;76.60;;;;;;4138751;28;19948;-66
2022/09/06 10:49:18;;;;;;;;;;;29.50;76.50;;;;;;4140162;28;20274;-66
2022/09/06 10:51:37;;;;;;;;;;;29.50;77.20;;;;;;4140327;28;19916;-69
2022/09/06 10:53:50;;;;;;;;;;;29.50;76.30;;;;;;4140561;28;19960;-67
2022/09/06 10:56:10;;;;;;;;;;;29.60;76.90;;;;;;4140445;28;19943;-67
2022/09/06 10:58:11;;;;;;;;;;;29.50;75.60;;;;;;4117905;28;20381;-67
2022/09/06 11:00:12;;;;;;;;;;;29.50;75.60;;;;;;4139248;28;19925;-67
2022/09/06 11:02:15;;;;;;;;;;;29.60;77.30;;;;;;4141253;28;19968;-67
2022/09/06 11:04:22;;;;;;;;;;;29.60;74.70;;;;;;4141661;28;19925;-67
2022/09/06 11:06:27;;;;;;;;;;;29.60;75.20;;;;;;4139078;28;20292;-67
2022/09/06 11:08:32;;;;;;;;;;;29.60;74.70;;;;;;4143503;28;21389;-67
2022/09/06 11:10:34;;;;;;;;;;;29.50;74.40;;;;;;4143980;28;19940;-67
2022/09/06 11:12:56;;;;;;;;;;;29.60;75.00;;;;;;4142544;28;19913;-67
2022/09/06 11:14:56;;;;;;;;;;;29.60;75.40;;;;;;4140854;28;20337;-67
2022/09/06 11:17:08;;;;;;;;;;;29.70;75.80;;;;;;4142524;28;19917;-67
2022/09/06 11:19:22;;;;;;;;;;;29.70;76.30;;;;;;4140660;28;20284;-68
2022/09/06 11:21:29;;;;;;;;;;;29.80;75.70;;;;;;4142697;28;19917;-67
2022/09/06 11:23:48;;;;;;;;;;;29.80;75.00;;;;;;4143362;28;19913;-67
2022/09/06 11:25:58;;;;;;;;;;;29.80;74.20;;;;;;4142132;28;19914;-67
2022/09/06 11:28:00;;;;;;;;;;;29.90;74.50;;;;;;4141318;28;20336;-67
2022/09/06 11:30:02;;;;;;;;;;;29.90;73.70;;;;;;4141945;28;19918;-67
2022/09/06 11:32:23;;;;;;;;;;;30.00;73.90;;;;;;4141783;28;19913;-67
2022/09/06 11:34:25;;;;;;;;;;;30.00;73.80;;;;;;4139336;28;20000;-68
2022/09/06 11:36:25;;;;;;;;;;;30.00;74.60;;;;;;4143061;28;19916;-67
2022/09/06 11:38:26;;;;;;;;;;;30.10;74.30;;;;;;4145388;28;20388;-67
2022/09/06 11:40:37;;;;;;;;;;;30.10;72.50;;;;;;4145036;28;20356;-67
2022/09/06 11:42:40;;;;;;;;;;;30.10;73.90;;;;;;4145224;28;20279;-68